sensor_id;sensor_type;location;lat;lon;timestamp;pressure;altitude;pressure_sealevel;temperature;humidity
13478;BME280;12598;62.382;17.344;2023-01-28T00:00:53;101088.91;;;17.32;21.20
13478;BME280;12598;62.382;17.344;2023-01-28T00:01:54;101087.34;;;17.29;21.29
13478;BME280;12598;62.382;17.344;2023-01-28T00:02:56;101077.06;;;17.25;21.63
13478;BME280;12598;62.382;17.344;2023-01-28T00:03:58;101079.47;;;17.28;21.38
13478;BME280;12598;62.382;17.344;2023-01-28T00:05:01;101069.28;;;17.22;21.29
13478;BME280;12598;62.382;17.344;2023-01-28T00:06:05;101075.22;;;17.25;21.72
13478;BME280;12598;62.382;17.344;2023-01-28T00:07:07;101075.22;;;17.25;21.79
13478;BME280;12598;62.382;17.344;2023-01-28T00:08:09;101060.28;;;17.13;21.43
13478;BME280;12598;62.382;17.344;2023-01-28T00:09:12;101071.03;;;17.23;21.86
13478;BME280;12598;62.382;17.344;2023-01-28T00:10:14;101072.84;;;17.22;21.68
13478;BME280;12598;62.382;17.344;2023-01-28T00:11:16;101071.13;;;17.21;21.39
13478;BME280;12598;62.382;17.344;2023-01-28T00:12:17;101075.78;;;17.19;21.27
13478;BME280;12598;62.382;17.344;2023-01-28T00:13:19;101074.09;;;17.18;21.64
13478;BME280;12598;62.382;17.344;2023-01-28T00:14:21;101067.31;;;17.14;21.52
13478;BME280;12598;62.382;17.344;2023-01-28T00:15:23;101066.34;;;17.15;21.40
13478;BME280;12598;62.382;17.344;2023-01-28T00:16:26;101055.22;;;17.10;21.67
13478;BME280;12598;62.382;17.344;2023-01-28T00:17:28;101067.31;;;17.14;21.57
13478;BME280;12598;62.382;17.344;2023-01-28T00:18:32;101070.97;;;17.13;21.41
13478;BME280;12598;62.382;17.344;2023-01-28T00:19:34;101070.09;;;17.13;21.80
13478;BME280;12598;62.382;17.344;2023-01-28T00:20:35;101072.94;;;17.11;21.65
13478;BME280;12598;62.382;17.344;2023-01-28T00:21:37;101064.06;;;17.11;21.80
13478;BME280;12598;62.382;17.344;2023-01-28T00:22:39;101062.34;;;17.10;21.70
13478;BME280;12598;62.382;17.344;2023-01-28T00:23:42;101062.50;;;17.08;21.72
13478;BME280;12598;62.382;17.344;2023-01-28T00:24:45;101048.19;;;17.09;21.31
13478;BME280;12598;62.382;17.344;2023-01-28T00:25:47;101045.50;;;17.09;21.51
13478;BME280;12598;62.382;17.344;2023-01-28T00:26:49;101042.13;;;17.07;21.55
13478;BME280;12598;62.382;17.344;2023-01-28T00:27:51;101034.09;;;17.07;21.63
13478;BME280;12598;62.382;17.344;2023-01-28T00:28:53;101038.75;;;17.05;21.90
13478;BME280;12598;62.382;17.344;2023-01-28T00:29:55;101021.94;;;16.94;21.75
13478;BME280;12598;62.382;17.344;2023-01-28T00:30:57;101034.38;;;17.04;21.90
13478;BME280;12598;62.382;17.344;2023-01-28T00:32:00;101038.84;;;17.04;21.61
13478;BME280;12598;62.382;17.344;2023-01-28T00:33:03;101024.47;;;16.95;21.67
13478;BME280;12598;62.382;17.344;2023-01-28T00:34:04;101034.50;;;17.03;21.54
13478;BME280;12598;62.382;17.344;2023-01-28T00:35:07;101035.47;;;17.02;21.43
13478;BME280;12598;62.382;17.344;2023-01-28T00:36:09;101025.78;;;17.01;21.76
13478;BME280;12598;62.382;17.344;2023-01-28T00:37:11;101025.19;;;16.97;21.50
13478;BME280;12598;62.382;17.344;2023-01-28T00:38:13;101026.03;;;16.98;21.51
13478;BME280;12598;62.382;17.344;2023-01-28T00:39:15;101025.88;;;16.99;21.60
13478;BME280;12598;62.382;17.344;2023-01-28T00:40:17;101014.50;;;16.97;21.51
13478;BME280;12598;62.382;17.344;2023-01-28T00:41:20;100975.06;;;16.80;21.61
13478;BME280;12598;62.382;17.344;2023-01-28T00:42:24;101003.69;;;16.99;21.37
13478;BME280;12598;62.382;17.344;2023-01-28T00:43:29;101009.88;;;16.99;21.54
13478;BME280;12598;62.382;17.344;2023-01-28T00:44:31;100999.44;;;16.96;21.65
13478;BME280;12598;62.382;17.344;2023-01-28T00:45:36;101001.69;;;16.91;21.61
13478;BME280;12598;62.382;17.344;2023-01-28T00:46:39;100982.69;;;16.85;21.64
13478;BME280;12598;62.382;17.344;2023-01-28T00:47:42;101007.47;;;16.96;21.85
13478;BME280;12598;62.382;17.344;2023-01-28T00:48:46;101007.47;;;16.96;21.76
13478;BME280;12598;62.382;17.344;2023-01-28T00:49:48;101008.44;;;16.95;21.61
13478;BME280;12598;62.382;17.344;2023-01-28T00:50:50;101001.69;;;16.91;21.62
13478;BME280;12598;62.382;17.344;2023-01-28T00:51:51;100998.91;;;16.93;21.90
13478;BME280;12598;62.382;17.344;2023-01-28T00:52:54;101000.69;;;16.92;21.78
13478;BME280;12598;62.382;17.344;2023-01-28T00:53:55;100997.19;;;16.92;21.83
13478;BME280;12598;62.382;17.344;2023-01-28T00:54:57;100996.34;;;16.91;21.49
13478;BME280;12598;62.382;17.344;2023-01-28T00:56:00;100998.19;;;16.91;21.63
13478;BME280;12598;62.382;17.344;2023-01-28T00:57:01;100978.47;;;16.82;21.57
13478;BME280;12598;62.382;17.344;2023-01-28T00:58:03;100989.47;;;16.89;21.62
13478;BME280;12598;62.382;17.344;2023-01-28T00:59:05;100990.28;;;16.89;21.71
13478;BME280;12598;62.382;17.344;2023-01-28T01:00:07;100991.28;;;16.88;21.65
13478;BME280;12598;62.382;17.344;2023-01-28T01:01:12;100996.63;;;16.88;21.58
13478;BME280;12598;62.382;17.344;2023-01-28T01:02:16;100990.28;;;16.89;21.58
13478;BME280;12598;62.382;17.344;2023-01-28T01:03:19;100982.97;;;16.82;21.81
13478;BME280;12598;62.382;17.344;2023-01-28T01:04:21;100986.19;;;16.85;21.73
13478;BME280;12598;62.382;17.344;2023-01-28T01:05:27;100985.94;;;16.88;21.52
13478;BME280;12598;62.382;17.344;2023-01-28T01:06:35;100984.25;;;16.87;21.71
13478;BME280;12598;62.382;17.344;2023-01-28T01:07:37;100982.28;;;16.89;21.68
13478;BME280;12598;62.382;17.344;2023-01-28T01:08:42;100978.91;;;16.87;21.61
13478;BME280;12598;62.382;17.344;2023-01-28T01:09:51;100975.25;;;16.88;21.67
13478;BME280;12598;62.382;17.344;2023-01-28T01:10:57;100957.47;;;16.78;21.89
13478;BME280;12598;62.382;17.344;2023-01-28T01:11:59;100966.53;;;16.86;21.52
13478;BME280;12598;62.382;17.344;2023-01-28T01:13:02;100964.00;;;16.85;21.82
13478;BME280;12598;62.382;17.344;2023-01-28T01:14:04;100964.84;;;16.85;21.65
13478;BME280;12598;62.382;17.344;2023-01-28T01:15:08;100957.97;;;16.83;21.61
13478;BME280;12598;62.382;17.344;2023-01-28T01:16:13;100946.41;;;16.82;21.84
13478;BME280;12598;62.382;17.344;2023-01-28T01:17:17;100940.09;;;16.83;21.38
13478;BME280;12598;62.382;17.344;2023-01-28T01:18:19;100943.75;;;16.82;21.67
13478;BME280;12598;62.382;17.344;2023-01-28T01:19:21;100940.25;;;16.82;21.89
13478;BME280;12598;62.382;17.344;2023-01-28T01:20:25;100940.38;;;16.80;21.77
13478;BME280;12598;62.382;17.344;2023-01-28T01:21:28;100941.22;;;16.81;21.81
13478;BME280;12598;62.382;17.344;2023-01-28T01:22:36;100935.03;;;16.80;21.60
13478;BME280;12598;62.382;17.344;2023-01-28T01:23:38;100926.03;;;16.81;21.77
13478;BME280;12598;62.382;17.344;2023-01-28T01:24:40;100928.00;;;16.79;21.72
13478;BME280;12598;62.382;17.344;2023-01-28T01:25:42;100928.84;;;16.80;21.78
13478;BME280;12598;62.382;17.344;2023-01-28T01:26:44;100920.97;;;16.78;21.90
13478;BME280;12598;62.382;17.344;2023-01-28T01:27:48;100920.09;;;16.78;21.58
13478;BME280;12598;62.382;17.344;2023-01-28T01:28:51;100921.25;;;16.75;21.66
13478;BME280;12598;62.382;17.344;2023-01-28T01:29:53;100924.63;;;16.77;21.65
13478;BME280;12598;62.382;17.344;2023-01-28T01:31:04;100916.16;;;16.72;21.71
13478;BME280;12598;62.382;17.344;2023-01-28T01:32:07;100912.94;;;16.78;21.60
13478;BME280;12598;62.382;17.344;2023-01-28T01:33:08;100910.81;;;16.72;21.94
13478;BME280;12598;62.382;17.344;2023-01-28T01:34:10;100922.94;;;16.76;21.93
13478;BME280;12598;62.382;17.344;2023-01-28T01:35:12;100919.28;;;16.77;21.89
13478;BME280;12598;62.382;17.344;2023-01-28T01:36:16;100930.22;;;16.74;21.98
13478;BME280;12598;62.382;17.344;2023-01-28T01:37:19;100922.94;;;16.76;22.08
13478;BME280;12598;62.382;17.344;2023-01-28T01:38:20;100921.25;;;16.75;21.88
13478;BME280;12598;62.382;17.344;2023-01-28T01:39:22;100914.22;;;16.74;21.65
13478;BME280;12598;62.382;17.344;2023-01-28T01:40:24;100904.63;;;16.72;21.97
13478;BME280;12598;62.382;17.344;2023-01-28T01:41:28;100902.38;;;16.67;21.81
13478;BME280;12598;62.382;17.344;2023-01-28T01:42:32;100901.84;;;16.73;22.02
13478;BME280;12598;62.382;17.344;2023-01-28T01:44:02;100910.28;;;16.78;21.65
13478;BME280;12598;62.382;17.344;2023-01-28T01:45:07;100902.97;;;16.80;21.94
13478;BME280;12598;62.382;17.344;2023-01-28T01:46:09;100904.81;;;16.80;21.63
13478;BME280;12598;62.382;17.344;2023-01-28T01:47:11;100906.03;;;16.76;21.92
13478;BME280;12598;62.382;17.344;2023-01-28T01:48:20;100896.88;;;16.69;21.81
13478;BME280;12598;62.382;17.344;2023-01-28T01:49:25;100900.00;;;16.74;21.72
13478;BME280;12598;62.382;17.344;2023-01-28T01:50:31;100901.84;;;16.73;21.68
13478;BME280;12598;62.382;17.344;2023-01-28T01:51:35;100891.56;;;16.69;21.75
13478;BME280;12598;62.382;17.344;2023-01-28T01:52:39;100902.81;;;16.72;21.83
13478;BME280;12598;62.382;17.344;2023-01-28T01:53:45;100906.31;;;16.73;21.95
13478;BME280;12598;62.382;17.344;2023-01-28T01:54:51;100901.97;;;16.72;21.94
13478;BME280;12598;62.382;17.344;2023-01-28T01:55:59;100914.22;;;16.74;21.84
13478;BME280;12598;62.382;17.344;2023-01-28T01:57:04;100912.50;;;16.73;21.73
13478;BME280;12598;62.382;17.344;2023-01-28T01:58:13;100906.31;;;16.73;21.67
13478;BME280;12598;62.382;17.344;2023-01-28T01:59:21;100904.50;;;16.73;22.00
13478;BME280;12598;62.382;17.344;2023-01-28T02:00:26;100897.31;;;16.74;21.70
13478;BME280;12598;62.382;17.344;2023-01-28T02:01:29;100887.78;;;16.71;22.04
13478;BME280;12598;62.382;17.344;2023-01-28T02:02:40;100886.22;;;16.69;21.98
13478;BME280;12598;62.382;17.344;2023-01-28T02:04:44;100886.09;;;16.70;21.83
13478;BME280;12598;62.382;17.344;2023-01-28T02:05:49;100888.59;;;16.72;21.89
13478;BME280;12598;62.382;17.344;2023-01-28T02:06:51;100894.94;;;16.71;21.91
13478;BME280;12598;62.382;17.344;2023-01-28T02:07:56;100886.38;;;16.67;22.07
13478;BME280;12598;62.382;17.344;2023-01-28T02:09:38;100878.25;;;16.78;21.45
13478;BME280;12598;62.382;17.344;2023-01-28T02:10:43;100876.56;;;16.77;21.69
13478;BME280;12598;62.382;17.344;2023-01-28T02:11:46;100877.38;;;16.68;21.70
13478;BME280;12598;62.382;17.344;2023-01-28T02:12:52;100881.56;;;16.71;21.84
13478;BME280;12598;62.382;17.344;2023-01-28T02:14:02;100888.59;;;16.72;21.77
13478;BME280;12598;62.382;17.344;2023-01-28T02:15:08;100879.88;;;16.70;21.72
13478;BME280;12598;62.382;17.344;2023-01-28T02:16:10;100881.56;;;16.71;21.76
13478;BME280;12598;62.382;17.344;2023-01-28T02:17:13;100869.06;;;16.62;21.72
13478;BME280;12598;62.382;17.344;2023-01-28T02:18:15;100862.72;;;16.63;22.06
13478;BME280;12598;62.382;17.344;2023-01-28T02:19:18;100870.47;;;16.66;22.12
13478;BME280;12598;62.382;17.344;2023-01-28T02:20:33;100843.50;;;16.59;22.03
13478;BME280;12598;62.382;17.344;2023-01-28T02:21:48;100854.06;;;16.70;21.61
13478;BME280;12598;62.382;17.344;2023-01-28T02:23:12;100864.47;;;16.73;21.94
13478;BME280;12598;62.382;17.344;2023-01-28T02:24:49;100859.44;;;16.80;21.57
13478;BME280;12598;62.382;17.344;2023-01-28T02:30:14;100858.84;;;16.76;21.70
13478;BME280;12598;62.382;17.344;2023-01-28T02:31:31;100856.44;;;16.73;21.77
13478;BME280;12598;62.382;17.344;2023-01-28T02:32:42;100852.09;;;16.72;21.52
13478;BME280;12598;62.382;17.344;2023-01-28T02:33:58;100862.88;;;16.71;21.52
13478;BME280;12598;62.382;17.344;2023-01-28T02:36:24;100850.69;;;16.68;21.78
13478;BME280;12598;62.382;17.344;2023-01-28T02:37:59;100844.78;;;16.74;21.60
13478;BME280;12598;62.382;17.344;2023-01-28T02:39:15;100832.81;;;16.69;21.63
13478;BME280;12598;62.382;17.344;2023-01-28T02:40:28;100832.97;;;16.67;21.58
13478;BME280;12598;62.382;17.344;2023-01-28T02:41:36;100830.56;;;16.64;21.70
13478;BME280;12598;62.382;17.344;2023-01-28T02:42:41;100846.31;;;16.67;21.66
13478;BME280;12598;62.382;17.344;2023-01-28T02:43:45;100850.25;;;16.63;21.79
13478;BME280;12598;62.382;17.344;2023-01-28T02:44:47;100837.88;;;16.62;21.70
13478;BME280;12598;62.382;17.344;2023-01-28T02:45:49;100848.69;;;16.61;21.69
13478;BME280;12598;62.382;17.344;2023-01-28T02:47:11;100840.53;;;16.62;21.57
13478;BME280;12598;62.382;17.344;2023-01-28T02:48:31;100835.75;;;16.66;21.82
13478;BME280;12598;62.382;17.344;2023-01-28T02:49:40;100844.91;;;16.63;21.85
13478;BME280;12598;62.382;17.344;2023-01-28T02:51:13;100825.03;;;16.56;21.60
13478;BME280;12598;62.382;17.344;2023-01-28T02:52:45;100833.69;;;16.69;21.64
13478;BME280;12598;62.382;17.344;2023-01-28T02:54:13;100832.41;;;16.73;21.45
13478;BME280;12598;62.382;17.344;2023-01-28T03:00:08;100816.94;;;16.67;21.53
13478;BME280;12598;62.382;17.344;2023-01-28T03:01:27;100805.13;;;16.60;21.72
13478;BME280;12598;62.382;17.344;2023-01-28T03:02:36;100827.63;;;16.67;21.66
13478;BME280;12598;62.382;17.344;2023-01-28T03:04:09;100799.25;;;16.66;21.87
13478;BME280;12598;62.382;17.344;2023-01-28T03:06:29;100806.25;;;16.58;21.97
13478;BME280;12598;62.382;17.344;2023-01-28T03:07:35;100816.81;;;16.59;21.90
13478;BME280;12598;62.382;17.344;2023-01-28T03:08:43;100818.72;;;16.57;22.03
13478;BME280;12598;62.382;17.344;2023-01-28T03:10:08;100817.50;;;16.61;21.83
13478;BME280;12598;62.382;17.344;2023-01-28T03:11:13;100817.63;;;16.60;21.76
13478;BME280;12598;62.382;17.344;2023-01-28T03:12:34;100820.28;;;16.60;21.83
13478;BME280;12598;62.382;17.344;2023-01-28T03:13:58;100802.28;;;16.52;21.78
13478;BME280;12598;62.382;17.344;2023-01-28T03:15:19;100829.88;;;16.62;21.71
13478;BME280;12598;62.382;17.344;2023-01-28T03:16:42;100831.69;;;16.62;21.93
13478;BME280;12598;62.382;17.344;2023-01-28T03:19:26;100827.19;;;16.62;21.81
13478;BME280;12598;62.382;17.344;2023-01-28T03:21:04;100832.38;;;16.64;21.79
13478;BME280;12598;62.382;17.344;2023-01-28T03:22:28;100819.19;;;16.62;21.91
13478;BME280;12598;62.382;17.344;2023-01-28T03:25:27;100820.88;;;16.63;21.94
13478;BME280;12598;62.382;17.344;2023-01-28T03:26:57;100808.50;;;16.62;21.76
13478;BME280;12598;62.382;17.344;2023-01-28T03:28:30;100790.22;;;16.58;21.74
13478;BME280;12598;62.382;17.344;2023-01-28T03:29:55;100789.38;;;16.57;21.74
13478;BME280;12598;62.382;17.344;2023-01-28T03:31:19;100778.97;;;16.54;21.82
13478;BME280;12598;62.382;17.344;2023-01-28T03:32:42;100799.78;;;16.60;21.95
13478;BME280;12598;62.382;17.344;2023-01-28T03:34:04;100799.09;;;16.58;21.38
13478;BME280;12598;62.382;17.344;2023-01-28T03:35:29;100800.03;;;16.57;21.90
13478;BME280;12598;62.382;17.344;2023-01-28T03:36:50;100807.09;;;16.58;21.73
13478;BME280;12598;62.382;17.344;2023-01-28T03:38:16;100801.28;;;16.53;21.72
13478;BME280;12598;62.382;17.344;2023-01-28T03:39:26;100807.34;;;16.55;21.95
13478;BME280;12598;62.382;17.344;2023-01-28T03:40:29;100788.34;;;16.39;21.92
13478;BME280;12598;62.382;17.344;2023-01-28T03:41:30;100797.22;;;16.49;22.10
13478;BME280;12598;62.382;17.344;2023-01-28T03:42:32;100815.19;;;16.47;22.02
13478;BME280;12598;62.382;17.344;2023-01-28T03:43:57;100807.63;;;16.52;21.62
13478;BME280;12598;62.382;17.344;2023-01-28T03:45:20;100794.97;;;16.54;21.75
13478;BME280;12598;62.382;17.344;2023-01-28T03:46:23;100799.63;;;16.52;21.96
13478;BME280;12598;62.382;17.344;2023-01-28T03:47:29;100791.88;;;16.49;21.70
13478;BME280;12598;62.382;17.344;2023-01-28T03:48:31;100788.38;;;16.49;21.79
13478;BME280;12598;62.382;17.344;2023-01-28T03:49:45;100791.06;;;16.49;21.50
13478;BME280;12598;62.382;17.344;2023-01-28T03:50:54;100798.91;;;16.50;21.67
13478;BME280;12598;62.382;17.344;2023-01-28T03:51:58;100800.75;;;16.50;21.88
13478;BME280;12598;62.382;17.344;2023-01-28T03:53:00;100799.19;;;16.47;22.17
13478;BME280;12598;62.382;17.344;2023-01-28T03:54:20;100797.22;;;16.49;21.62
13478;BME280;12598;62.382;17.344;2023-01-28T03:55:22;100795.53;;;16.48;21.86
13478;BME280;12598;62.382;17.344;2023-01-28T03:56:26;100790.19;;;16.48;21.76
13478;BME280;12598;62.382;17.344;2023-01-28T03:57:33;100781.34;;;16.48;21.79
13478;BME280;12598;62.382;17.344;2023-01-28T03:58:35;100772.50;;;16.47;22.06
13478;BME280;12598;62.382;17.344;2023-01-28T03:59:57;100781.91;;;16.51;21.72
13478;BME280;12598;62.382;17.344;2023-01-28T04:01:00;100774.19;;;16.48;21.96
13478;BME280;12598;62.382;17.344;2023-01-28T04:02:02;100766.31;;;16.47;21.68
13478;BME280;12598;62.382;17.344;2023-01-28T04:03:04;100759.44;;;16.44;21.45
13478;BME280;12598;62.382;17.344;2023-01-28T04:04:21;100759.84;;;16.49;21.98
13478;BME280;12598;62.382;17.344;2023-01-28T04:05:28;100747.50;;;16.48;21.81
13478;BME280;12598;62.382;17.344;2023-01-28T04:06:31;100750.31;;;16.47;22.10
13478;BME280;12598;62.382;17.344;2023-01-28T04:08:12;100763.66;;;16.56;21.66
13478;BME280;12598;62.382;17.344;2023-01-28T04:09:37;100770.69;;;16.57;21.92
13478;BME280;12598;62.382;17.344;2023-01-28T04:11:01;100766.31;;;16.56;21.59
13478;BME280;12598;62.382;17.344;2023-01-28T04:12:21;100772.53;;;16.57;21.53
13478;BME280;12598;62.382;17.344;2023-01-28T04:13:26;100761.00;;;16.47;21.93
13478;BME280;12598;62.382;17.344;2023-01-28T04:14:28;100770.81;;;16.46;22.02
13478;BME280;12598;62.382;17.344;2023-01-28T04:15:55;100779.13;;;16.53;21.93
13478;BME280;12598;62.382;17.344;2023-01-28T04:16:58;100788.22;;;16.50;21.82
13478;BME280;12598;62.382;17.344;2023-01-28T04:18:00;100786.53;;;16.49;22.08
13478;BME280;12598;62.382;17.344;2023-01-28T04:19:03;100785.84;;;16.47;21.76
13478;BME280;12598;62.382;17.344;2023-01-28T04:20:07;100777.13;;;16.45;22.23
13478;BME280;12598;62.382;17.344;2023-01-28T04:21:09;100779.78;;;16.45;21.82
13478;BME280;12598;62.382;17.344;2023-01-28T04:22:11;100780.66;;;16.46;21.80
13478;BME280;12598;62.382;17.344;2023-01-28T04:23:15;100776.13;;;16.46;22.01
13478;BME280;12598;62.382;17.344;2023-01-28T04:24:18;100769.28;;;16.44;21.70
13478;BME280;12598;62.382;17.344;2023-01-28T04:25:20;100761.25;;;16.44;22.04
13478;BME280;12598;62.382;17.344;2023-01-28T04:26:22;100764.91;;;16.43;21.92
13478;BME280;12598;62.382;17.344;2023-01-28T04:27:24;100755.06;;;16.43;21.84
13478;BME280;12598;62.382;17.344;2023-01-28T04:28:26;100742.41;;;16.36;21.90
13478;BME280;12598;62.382;17.344;2023-01-28T04:29:28;100751.41;;;16.44;21.68
13478;BME280;12598;62.382;17.344;2023-01-28T04:30:35;100739.75;;;16.45;21.97
13478;BME280;12598;62.382;17.344;2023-01-28T04:31:46;100737.81;;;16.47;21.62
13478;BME280;12598;62.382;17.344;2023-01-28T04:33:11;100748.06;;;16.52;21.71
13478;BME280;12598;62.382;17.344;2023-01-28T04:34:28;100752.28;;;16.54;22.06
13478;BME280;12598;62.382;17.344;2023-01-28T04:35:58;100748.63;;;16.55;21.62
13478;BME280;12598;62.382;17.344;2023-01-28T04:37:17;100756.50;;;16.57;21.77
13478;BME280;12598;62.382;17.344;2023-01-28T04:38:39;100751.03;;;16.58;21.66
13478;BME280;12598;62.382;17.344;2023-01-28T04:40:01;100743.03;;;16.58;21.57
13478;BME280;12598;62.382;17.344;2023-01-28T04:41:15;100749.59;;;16.54;21.52
13478;BME280;12598;62.382;17.344;2023-01-28T04:42:17;100748.91;;;16.52;22.03
13478;BME280;12598;62.382;17.344;2023-01-28T04:43:41;100755.81;;;16.55;21.79
13478;BME280;12598;62.382;17.344;2023-01-28T04:45:06;100747.63;;;16.56;21.45
13478;BME280;12598;62.382;17.344;2023-01-28T04:46:31;100753.72;;;16.58;21.62
13478;BME280;12598;62.382;17.344;2023-01-28T04:47:36;100751.56;;;16.52;21.60
13478;BME280;12598;62.382;17.344;2023-01-28T04:49:06;100752.97;;;16.56;21.57
13478;BME280;12598;62.382;17.344;2023-01-28T04:50:20;100753.97;;;16.55;21.96
13478;BME280;12598;62.382;17.344;2023-01-28T04:51:51;100722.06;;;16.44;21.89
13478;BME280;12598;62.382;17.344;2023-01-28T04:53:19;100732.34;;;16.58;21.47
13478;BME280;12598;62.382;17.344;2023-01-28T04:54:31;100716.59;;;16.55;21.81
13478;BME280;12598;62.382;17.344;2023-01-28T04:55:36;100710.72;;;16.52;22.07
13478;BME280;12598;62.382;17.344;2023-01-28T04:56:39;100705.34;;;16.42;21.84
13478;BME280;12598;62.382;17.344;2023-01-28T04:57:41;100694.13;;;16.39;21.95
13478;BME280;12598;62.382;17.344;2023-01-28T04:58:42;100716.59;;;16.46;22.05
13478;BME280;12598;62.382;17.344;2023-01-28T04:59:48;100712.09;;;16.46;22.09
13478;BME280;12598;62.382;17.344;2023-01-28T05:00:54;100712.38;;;16.43;22.24
13478;BME280;12598;62.382;17.344;2023-01-28T05:01:56;100705.63;;;16.39;22.31
13478;BME280;12598;62.382;17.344;2023-01-28T05:02:58;100722.91;;;16.45;22.31
13478;BME280;12598;62.382;17.344;2023-01-28T05:04:00;100720.25;;;16.45;22.25
13478;BME280;12598;62.382;17.344;2023-01-28T05:05:08;100726.41;;;16.45;21.96
13478;BME280;12598;62.382;17.344;2023-01-28T05:06:27;100731.47;;;16.48;22.32
13478;BME280;12598;62.382;17.344;2023-01-28T05:07:35;100737.69;;;16.49;22.26
13478;BME280;12598;62.382;17.344;2023-01-28T05:08:37;100733.16;;;16.40;22.48
13478;BME280;12598;62.382;17.344;2023-01-28T05:09:39;100753.81;;;16.47;22.18
13478;BME280;12598;62.382;17.344;2023-01-28T05:10:42;100741.44;;;16.46;22.47
13478;BME280;12598;62.382;17.344;2023-01-28T05:11:44;100737.38;;;16.42;22.48
13478;BME280;12598;62.382;17.344;2023-01-28T05:12:48;100741.59;;;16.45;22.40
13478;BME280;12598;62.382;17.344;2023-01-28T05:13:50;100745.09;;;16.45;22.63
13478;BME280;12598;62.382;17.344;2023-01-28T05:14:53;100747.78;;;16.45;22.41
13478;BME280;12598;62.382;17.344;2023-01-28T05:15:55;100742.59;;;16.44;22.23
13478;BME280;12598;62.382;17.344;2023-01-28T05:16:57;100743.56;;;16.43;22.30
13478;BME280;12598;62.382;17.344;2023-01-28T05:17:59;100746.09;;;16.44;22.32
13478;BME280;12598;62.382;17.344;2023-01-28T05:19:07;100754.78;;;16.46;22.28
13478;BME280;12598;62.382;17.344;2023-01-28T05:20:16;100724.88;;;16.33;22.46
13478;BME280;12598;62.382;17.344;2023-01-28T05:21:21;100750.31;;;16.47;22.51
13478;BME280;12598;62.382;17.344;2023-01-28T05:22:29;100747.50;;;16.48;22.33
13478;BME280;12598;62.382;17.344;2023-01-28T05:23:50;100759.56;;;16.52;22.21
13478;BME280;12598;62.382;17.344;2023-01-28T05:24:52;100749.19;;;16.49;22.24
13478;BME280;12598;62.382;17.344;2023-01-28T05:25:53;100744.00;;;16.48;22.29
13478;BME280;12598;62.382;17.344;2023-01-28T05:26:56;100727.25;;;16.36;22.55
13478;BME280;12598;62.382;17.344;2023-01-28T05:27:58;100749.44;;;16.46;22.16
13478;BME280;12598;62.382;17.344;2023-01-28T05:29:00;100733.16;;;16.40;22.66
13478;BME280;12598;62.382;17.344;2023-01-28T05:30:03;100743.28;;;16.46;22.50
13478;BME280;12598;62.382;17.344;2023-01-28T05:31:07;100734.00;;;16.40;22.23
13478;BME280;12598;62.382;17.344;2023-01-28T05:32:09;100740.63;;;16.46;22.28
13478;BME280;12598;62.382;17.344;2023-01-28T05:33:11;100738.94;;;16.45;22.40
13478;BME280;12598;62.382;17.344;2023-01-28T05:34:13;100742.59;;;16.44;22.51
13478;BME280;12598;62.382;17.344;2023-01-28T05:35:15;100747.78;;;16.45;22.12
13478;BME280;12598;62.382;17.344;2023-01-28T05:36:18;100731.03;;;16.34;22.12
13478;BME280;12598;62.382;17.344;2023-01-28T05:37:20;100742.97;;;16.39;22.30
13478;BME280;12598;62.382;17.344;2023-01-28T05:38:24;100753.09;;;16.45;22.32
13478;BME280;12598;62.382;17.344;2023-01-28T05:39:27;100751.28;;;16.46;22.58
13478;BME280;12598;62.382;17.344;2023-01-28T05:40:28;100749.44;;;16.46;22.31
13478;BME280;12598;62.382;17.344;2023-01-28T05:41:31;100740.75;;;16.44;22.20
13478;BME280;12598;62.382;17.344;2023-01-28T05:42:35;100746.78;;;16.46;22.58
13478;BME280;12598;62.382;17.344;2023-01-28T05:43:53;100743.00;;;16.49;22.31
13478;BME280;12598;62.382;17.344;2023-01-28T05:45:25;100744.25;;;16.54;22.52
13478;BME280;12598;62.382;17.344;2023-01-28T05:46:44;100739.09;;;16.53;22.21
13478;BME280;12598;62.382;17.344;2023-01-28T05:48:09;100739.63;;;16.56;22.53
13478;BME280;12598;62.382;17.344;2023-01-28T05:49:32;100744.97;;;16.56;22.24
13478;BME280;12598;62.382;17.344;2023-01-28T05:50:52;100731.63;;;16.47;22.44
13478;BME280;12598;62.382;17.344;2023-01-28T05:52:02;100751.44;;;16.54;22.58
13478;BME280;12598;62.382;17.344;2023-01-28T05:53:05;100759.84;;;16.49;22.36
13478;BME280;12598;62.382;17.344;2023-01-28T05:54:09;100746.09;;;16.44;22.37
13478;BME280;12598;62.382;17.344;2023-01-28T05:55:11;100755.06;;;16.43;22.63
13478;BME280;12598;62.382;17.344;2023-01-28T05:56:13;100756.63;;;16.46;22.58
13478;BME280;12598;62.382;17.344;2023-01-28T05:57:16;100751.41;;;16.44;22.72
13478;BME280;12598;62.382;17.344;2023-01-28T05:58:19;100743.56;;;16.43;22.64
13478;BME280;12598;62.382;17.344;2023-01-28T05:59:20;100746.09;;;16.44;22.71
13478;BME280;12598;62.382;17.344;2023-01-28T06:00:25;100746.09;;;16.44;22.56
13478;BME280;12598;62.382;17.344;2023-01-28T06:01:27;100746.94;;;16.45;22.24
13478;BME280;12598;62.382;17.344;2023-01-28T06:02:28;100753.25;;;16.44;22.50
13478;BME280;12598;62.382;17.344;2023-01-28T06:03:33;100750.59;;;16.44;22.51
13478;BME280;12598;62.382;17.344;2023-01-28T06:04:35;100755.94;;;16.44;22.38
13478;BME280;12598;62.382;17.344;2023-01-28T06:05:37;100760.69;;;16.40;22.74
13478;BME280;12598;62.382;17.344;2023-01-28T06:06:40;100761.25;;;16.44;22.43
13478;BME280;12598;62.382;17.344;2023-01-28T06:07:48;100756.22;;;16.41;22.76